sensor_id;sensor_type;location;lat;lon;timestamp;temperature;humidity
53802;DHT22;39709;53.334;6.534;2022-07-30T00:01:24;16.40;1.00
53802;DHT22;39709;53.334;6.534;2022-07-30T00:03:50;16.30;1.00
53802;DHT22;39709;53.334;6.534;2022-07-30T00:06:15;16.30;1.00
53802;DHT22;39709;53.334;6.534;2022-07-30T00:08:41;16.40;1.00
53802;DHT22;39709;53.334;6.534;2022-07-30T00:11:07;16.30;1.00
53802;DHT22;39709;53.334;6.534;2022-07-30T00:13:34;16.30;1.00
53802;DHT22;39709;53.334;6.534;2022-07-30T00:15:59;16.30;1.00
53802;DHT22;39709;53.334;6.534;2022-07-30T00:18:25;16.30;1.00
53802;DHT22;39709;53.334;6.534;2022-07-30T00:20:51;16.40;1.00
53802;DHT22;39709;53.334;6.534;2022-07-30T00:23:16;16.30;1.60
53802;DHT22;39709;53.334;6.534;2022-07-30T00:25:42;16.40;5.00
53802;DHT22;39709;53.334;6.534;2022-07-30T00:28:08;16.30;5.10
53802;DHT22;39709;53.334;6.534;2022-07-30T00:30:34;16.40;6.50
53802;DHT22;39709;53.334;6.534;2022-07-30T00:33:00;16.30;1.00
53802;DHT22;39709;53.334;6.534;2022-07-30T00:35:27;16.20;1.00
53802;DHT22;39709;53.334;6.534;2022-07-30T00:37:53;16.20;1.00
53802;DHT22;39709;53.334;6.534;2022-07-30T00:40:19;16.10;1.00
53802;DHT22;39709;53.334;6.534;2022-07-30T00:42:46;16.20;1.00
53802;DHT22;39709;53.334;6.534;2022-07-30T00:45:13;16.10;1.00
53802;DHT22;39709;53.334;6.534;2022-07-30T00:47:40;16.10;1.00
53802;DHT22;39709;53.334;6.534;2022-07-30T00:50:08;16.10;1.00
53802;DHT22;39709;53.334;6.534;2022-07-30T00:52:35;16.10;11.30
53802;DHT22;39709;53.334;6.534;2022-07-30T00:55:04;16.10;7.70
53802;DHT22;39709;53.334;6.534;2022-07-30T00:57:30;16.10;1.00
53802;DHT22;39709;53.334;6.534;2022-07-30T00:59:57;16.00;1.00
53802;DHT22;39709;53.334;6.534;2022-07-30T01:02:23;15.90;1.00
53802;DHT22;39709;53.334;6.534;2022-07-30T01:04:48;16.00;1.00
53802;DHT22;39709;53.334;6.534;2022-07-30T01:07:14;15.90;1.00
53802;DHT22;39709;53.334;6.534;2022-07-30T01:09:40;15.80;1.00
53802;DHT22;39709;53.334;6.534;2022-07-30T01:12:07;15.80;1.00
53802;DHT22;39709;53.334;6.534;2022-07-30T01:14:35;15.80;1.00
53802;DHT22;39709;53.334;6.534;2022-07-30T01:17:01;15.60;1.00
53802;DHT22;39709;53.334;6.534;2022-07-30T01:19:32;15.60;1.00
53802;DHT22;39709;53.334;6.534;2022-07-30T01:25:03;15.60;1.00
53802;DHT22;39709;53.334;6.534;2022-07-30T01:27:42;15.60;1.70
53802;DHT22;39709;53.334;6.534;2022-07-30T01:30:09;15.50;1.00
53802;DHT22;39709;53.334;6.534;2022-07-30T01:32:39;15.40;1.00
53802;DHT22;39709;53.334;6.534;2022-07-30T01:35:08;15.50;1.00
53802;DHT22;39709;53.334;6.534;2022-07-30T01:37:35;15.50;1.00
53802;DHT22;39709;53.334;6.534;2022-07-30T01:40:02;15.40;1.00
53802;DHT22;39709;53.334;6.534;2022-07-30T01:42:28;15.50;1.00
53802;DHT22;39709;53.334;6.534;2022-07-30T01:44:56;15.40;1.00
53802;DHT22;39709;53.334;6.534;2022-07-30T01:47:23;15.30;1.00
53802;DHT22;39709;53.334;6.534;2022-07-30T01:49:50;15.30;1.00
53802;DHT22;39709;53.334;6.534;2022-07-30T01:52:18;15.30;4.50
53802;DHT22;39709;53.334;6.534;2022-07-30T01:54:49;15.40;1.00
53802;DHT22;39709;53.334;6.534;2022-07-30T01:57:18;15.40;10.10
53802;DHT22;39709;53.334;6.534;2022-07-30T01:59:48;15.50;19.50
53802;DHT22;39709;53.334;6.534;2022-07-30T02:02:14;15.30;18.00
53802;DHT22;39709;53.334;6.534;2022-07-30T02:04:40;15.50;22.60
53802;DHT22;39709;53.334;6.534;2022-07-30T02:07:17;15.40;15.40
53802;DHT22;39709;53.334;6.534;2022-07-30T02:10:13;15.40;5.20
53802;DHT22;39709;53.334;6.534;2022-07-30T02:12:48;15.10;1.00
53802;DHT22;39709;53.334;6.534;2022-07-30T02:15:25;15.10;5.30
53802;DHT22;39709;53.334;6.534;2022-07-30T02:17:55;15.10;24.80
53802;DHT22;39709;53.334;6.534;2022-07-30T02:20:23;15.30;34.80
53802;DHT22;39709;53.334;6.534;2022-07-30T02:22:53;15.30;35.30
53802;DHT22;39709;53.334;6.534;2022-07-30T02:25:20;15.20;43.50
53802;DHT22;39709;53.334;6.534;2022-07-30T02:28:01;15.30;47.00
53802;DHT22;39709;53.334;6.534;2022-07-30T02:30:30;15.20;54.40
53802;DHT22;39709;53.334;6.534;2022-07-30T02:33:07;15.20;53.10
53802;DHT22;39709;53.334;6.534;2022-07-30T02:35:37;15.10;37.30
53802;DHT22;39709;53.334;6.534;2022-07-30T02:38:04;15.10;27.00
53802;DHT22;39709;53.334;6.534;2022-07-30T02:40:31;15.00;27.20
53802;DHT22;39709;53.334;6.534;2022-07-30T02:42:58;14.90;29.30
53802;DHT22;39709;53.334;6.534;2022-07-30T02:45:25;15.10;35.50
53802;DHT22;39709;53.334;6.534;2022-07-30T02:48:04;15.10;33.00
53802;DHT22;39709;53.334;6.534;2022-07-30T02:50:31;14.90;34.70
53802;DHT22;39709;53.334;6.534;2022-07-30T02:52:59;14.90;38.40
53802;DHT22;39709;53.334;6.534;2022-07-30T02:55:27;15.00;37.10
53802;DHT22;39709;53.334;6.534;2022-07-30T02:57:55;14.90;24.80
53802;DHT22;39709;53.334;6.534;2022-07-30T03:00:23;14.80;20.20
53802;DHT22;39709;53.334;6.534;2022-07-30T03:02:50;14.90;34.40
53802;DHT22;39709;53.334;6.534;2022-07-30T03:05:17;14.90;31.50
53802;DHT22;39709;53.334;6.534;2022-07-30T03:07:44;14.90;38.80
53802;DHT22;39709;53.334;6.534;2022-07-30T03:10:11;14.70;48.90
53802;DHT22;39709;53.334;6.534;2022-07-30T03:12:39;14.70;54.00
53802;DHT22;39709;53.334;6.534;2022-07-30T03:15:07;14.80;62.60
53802;DHT22;39709;53.334;6.534;2022-07-30T03:17:37;14.60;69.40
53802;DHT22;39709;53.334;6.534;2022-07-30T03:20:08;14.60;69.60
53802;DHT22;39709;53.334;6.534;2022-07-30T03:22:40;14.50;73.40
53802;DHT22;39709;53.334;6.534;2022-07-30T03:25:07;14.50;77.30
53802;DHT22;39709;53.334;6.534;2022-07-30T03:27:35;14.50;73.60
53802;DHT22;39709;53.334;6.534;2022-07-30T03:30:03;14.40;70.30
53802;DHT22;39709;53.334;6.534;2022-07-30T03:32:30;14.50;69.70
53802;DHT22;39709;53.334;6.534;2022-07-30T03:34:58;14.30;75.60
53802;DHT22;39709;53.334;6.534;2022-07-30T03:37:25;14.40;79.70
53802;DHT22;39709;53.334;6.534;2022-07-30T03:39:53;14.60;88.20
53802;DHT22;39709;53.334;6.534;2022-07-30T03:42:20;14.50;89.50
53802;DHT22;39709;53.334;6.534;2022-07-30T03:44:47;14.60;90.30
53802;DHT22;39709;53.334;6.534;2022-07-30T03:47:13;14.50;89.70
53802;DHT22;39709;53.334;6.534;2022-07-30T03:49:40;14.50;80.00
53802;DHT22;39709;53.334;6.534;2022-07-30T03:52:06;14.50;79.10
53802;DHT22;39709;53.334;6.534;2022-07-30T03:54:32;14.30;80.00
53802;DHT22;39709;53.334;6.534;2022-07-30T03:57:00;14.40;79.40
53802;DHT22;39709;53.334;6.534;2022-07-30T03:59:27;14.40;82.70
53802;DHT22;39709;53.334;6.534;2022-07-30T04:01:53;14.50;83.90
53802;DHT22;39709;53.334;6.534;2022-07-30T04:04:18;14.50;82.80
53802;DHT22;39709;53.334;6.534;2022-07-30T04:06:44;14.50;81.20
53802;DHT22;39709;53.334;6.534;2022-07-30T04:09:11;14.30;77.60
53802;DHT22;39709;53.334;6.534;2022-07-30T04:11:38;14.60;75.40
53802;DHT22;39709;53.334;6.534;2022-07-30T04:14:03;14.60;71.60
53802;DHT22;39709;53.334;6.534;2022-07-30T04:17:02;14.80;68.80
53802;DHT22;39709;53.334;6.534;2022-07-30T04:19:39;14.90;63.40
53802;DHT22;39709;53.334;6.534;2022-07-30T04:22:07;15.00;53.00
53802;DHT22;39709;53.334;6.534;2022-07-30T04:24:34;15.00;47.60
53802;DHT22;39709;53.334;6.534;2022-07-30T04:27:01;15.00;41.40
53802;DHT22;39709;53.334;6.534;2022-07-30T04:29:27;15.10;34.80
53802;DHT22;39709;53.334;6.534;2022-07-30T04:31:53;15.00;34.70
53802;DHT22;39709;53.334;6.534;2022-07-30T04:34:19;14.90;21.00
53802;DHT22;39709;53.334;6.534;2022-07-30T04:36:45;14.80;8.30
53802;DHT22;39709;53.334;6.534;2022-07-30T04:39:10;14.70;18.50
53802;DHT22;39709;53.334;6.534;2022-07-30T04:41:37;14.60;25.60
53802;DHT22;39709;53.334;6.534;2022-07-30T04:44:03;14.70;16.70
53802;DHT22;39709;53.334;6.534;2022-07-30T04:46:29;14.70;19.50
53802;DHT22;39709;53.334;6.534;2022-07-30T04:48:55;14.50;9.30
53802;DHT22;39709;53.334;6.534;2022-07-30T04:51:41;14.60;1.80
53802;DHT22;39709;53.334;6.534;2022-07-30T04:54:10;14.40;15.80
53802;DHT22;39709;53.334;6.534;2022-07-30T04:56:37;14.30;19.00
53802;DHT22;39709;53.334;6.534;2022-07-30T04:59:03;14.50;15.40
53802;DHT22;39709;53.334;6.534;2022-07-30T05:01:33;14.40;13.30
53802;DHT22;39709;53.334;6.534;2022-07-30T05:04:00;14.50;13.40
53802;DHT22;39709;53.334;6.534;2022-07-30T05:06:27;14.70;8.60
53802;DHT22;39709;53.334;6.534;2022-07-30T05:08:53;14.70;1.00
53802;DHT22;39709;53.334;6.534;2022-07-30T05:11:19;14.70;1.00
53802;DHT22;39709;53.334;6.534;2022-07-30T05:13:46;14.50;1.00
53802;DHT22;39709;53.334;6.534;2022-07-30T05:16:16;14.50;3.30
53802;DHT22;39709;53.334;6.534;2022-07-30T05:18:42;14.40;10.70
53802;DHT22;39709;53.334;6.534;2022-07-30T05:21:08;14.30;21.10
53802;DHT22;39709;53.334;6.534;2022-07-30T05:23:34;14.40;27.40
53802;DHT22;39709;53.334;6.534;2022-07-30T05:26:00;14.60;26.40
53802;DHT22;39709;53.334;6.534;2022-07-30T05:28:25;14.60;32.40
53802;DHT22;39709;53.334;6.534;2022-07-30T05:30:52;14.90;31.10
53802;DHT22;39709;53.334;6.534;2022-07-30T05:33:19;14.80;21.50
53802;DHT22;39709;53.334;6.534;2022-07-30T05:35:44;15.30;5.10
53802;DHT22;39709;53.334;6.534;2022-07-30T05:38:10;15.50;1.00
53802;DHT22;39709;53.334;6.534;2022-07-30T05:40:36;15.50;1.00
53802;DHT22;39709;53.334;6.534;2022-07-30T05:43:02;15.60;1.00
53802;DHT22;39709;53.334;6.534;2022-07-30T05:45:28;16.00;1.00
53802;DHT22;39709;53.334;6.534;2022-07-30T05:47:54;16.00;1.00
53802;DHT22;39709;53.334;6.534;2022-07-30T05:50:20;16.00;6.60
53802;DHT22;39709;53.334;6.534;2022-07-30T05:52:45;15.80;14.20
53802;DHT22;39709;53.334;6.534;2022-07-30T05:55:11;15.90;21.10
53802;DHT22;39709;53.334;6.534;2022-07-30T05:57:37;15.90;23.60
53802;DHT22;39709;53.334;6.534;2022-07-30T06:00:04;16.00;20.00
53802;DHT22;39709;53.334;6.534;2022-07-30T06:02:30;16.10;23.70
53802;DHT22;39709;53.334;6.534;2022-07-30T06:04:56;16.10;28.80
53802;DHT22;39709;53.334;6.534;2022-07-30T06:07:22;16.10;30.00
53802;DHT22;39709;53.334;6.534;2022-07-30T06:09:47;16.30;23.00
53802;DHT22;39709;53.334;6.534;2022-07-30T06:12:13;16.50;23.20
53802;DHT22;39709;53.334;6.534;2022-07-30T06:14:39;16.70;18.90
53802;DHT22;39709;53.334;6.534;2022-07-30T06:17:05;16.70;11.20
53802;DHT22;39709;53.334;6.534;2022-07-30T06:19:30;16.80;12.10
53802;DHT22;39709;53.334;6.534;2022-07-30T06:21:56;16.90;1.00
53802;DHT22;39709;53.334;6.534;2022-07-30T06:24:22;16.90;1.00
53802;DHT22;39709;53.334;6.534;2022-07-30T06:26:48;16.90;1.00
53802;DHT22;39709;53.334;6.534;2022-07-30T06:29:13;17.00;1.00
53802;DHT22;39709;53.334;6.534;2022-07-30T06:31:39;17.20;1.00
53802;DHT22;39709;53.334;6.534;2022-07-30T06:34:06;17.30;1.00
53802;DHT22;39709;53.334;6.534;2022-07-30T06:36:31;17.30;1.00
53802;DHT22;39709;53.334;6.534;2022-07-30T06:38:57;17.40;1.00
53802;DHT22;39709;53.334;6.534;2022-07-30T06:41:23;17.40;1.00
53802;DHT22;39709;53.334;6.534;2022-07-30T06:43:49;17.30;1.00
53802;DHT22;39709;53.334;6.534;2022-07-30T06:46:15;17.40;1.00
53802;DHT22;39709;53.334;6.534;2022-07-30T06:48:42;17.50;1.00
53802;DHT22;39709;53.334;6.534;2022-07-30T06:51:08;17.50;1.00
53802;DHT22;39709;53.334;6.534;2022-07-30T06:53:34;17.60;1.00
53802;DHT22;39709;53.334;6.534;2022-07-30T06:56:00;17.70;1.00
53802;DHT22;39709;53.334;6.534;2022-07-30T06:58:25;17.90;1.00
53802;DHT22;39709;53.334;6.534;2022-07-30T07:00:51;18.00;1.00
53802;DHT22;39709;53.334;6.534;2022-07-30T07:03:17;18.20;1.00
53802;DHT22;39709;53.334;6.534;2022-07-30T07:05:42;18.30;1.00
53802;DHT22;39709;53.334;6.534;2022-07-30T07:08:08;18.40;1.00
53802;DHT22;39709;53.334;6.534;2022-07-30T07:10:33;18.50;1.00
53802;DHT22;39709;53.334;6.534;2022-07-30T07:12:59;18.60;1.00
53802;DHT22;39709;53.334;6.534;2022-07-30T07:15:25;18.70;1.00
53802;DHT22;39709;53.334;6.534;2022-07-30T07:17:51;18.90;1.00
53802;DHT22;39709;53.334;6.534;2022-07-30T07:20:17;18.90;1.00
53802;DHT22;39709;53.334;6.534;2022-07-30T07:22:43;19.00;1.00
53802;DHT22;39709;53.334;6.534;2022-07-30T07:25:09;19.00;1.00
53802;DHT22;39709;53.334;6.534;2022-07-30T07:27:36;19.10;1.00
53802;DHT22;39709;53.334;6.534;2022-07-30T07:30:03;19.10;1.00
53802;DHT22;39709;53.334;6.534;2022-07-30T07:32:29;19.40;1.00
53802;DHT22;39709;53.334;6.534;2022-07-30T07:34:55;19.30;1.00
53802;DHT22;39709;53.334;6.534;2022-07-30T07:37:20;19.40;1.00
53802;DHT22;39709;53.334;6.534;2022-07-30T07:39:46;19.60;1.00
53802;DHT22;39709;53.334;6.534;2022-07-30T07:42:12;19.70;1.00
53802;DHT22;39709;53.334;6.534;2022-07-30T07:44:38;19.80;1.00
53802;DHT22;39709;53.334;6.534;2022-07-30T07:47:03;19.90;1.00
53802;DHT22;39709;53.334;6.534;2022-07-30T07:49:29;20.10;1.00
53802;DHT22;39709;53.334;6.534;2022-07-30T07:51:55;20.00;1.00
53802;DHT22;39709;53.334;6.534;2022-07-30T07:54:20;20.30;1.00
53802;DHT22;39709;53.334;6.534;2022-07-30T07:56:46;20.30;1.00
53802;DHT22;39709;53.334;6.534;2022-07-30T07:59:13;20.50;1.00
53802;DHT22;39709;53.334;6.534;2022-07-30T08:01:38;20.60;1.00
53802;DHT22;39709;53.334;6.534;2022-07-30T08:04:04;20.70;1.00
53802;DHT22;39709;53.334;6.534;2022-07-30T08:06:30;21.00;1.00
53802;DHT22;39709;53.334;6.534;2022-07-30T08:08:55;21.10;1.00
53802;DHT22;39709;53.334;6.534;2022-07-30T08:11:21;21.20;1.00
53802;DHT22;39709;53.334;6.534;2022-07-30T08:13:47;21.20;1.00
53802;DHT22;39709;53.334;6.534;2022-07-30T08:16:13;21.20;1.00
53802;DHT22;39709;53.334;6.534;2022-07-30T08:18:39;21.30;1.00
53802;DHT22;39709;53.334;6.534;2022-07-30T08:21:05;21.30;1.00
53802;DHT22;39709;53.334;6.534;2022-07-30T08:23:32;21.30;1.00
53802;DHT22;39709;53.334;6.534;2022-07-30T08:25:58;21.30;1.00
53802;DHT22;39709;53.334;6.534;2022-07-30T08:28:24;21.40;1.00
53802;DHT22;39709;53.334;6.534;2022-07-30T08:30:50;21.50;1.00
53802;DHT22;39709;53.334;6.534;2022-07-30T08:33:16;21.60;1.00
53802;DHT22;39709;53.334;6.534;2022-07-30T08:35:42;21.60;1.00
53802;DHT22;39709;53.334;6.534;2022-07-30T08:38:08;21.70;1.00
53802;DHT22;39709;53.334;6.534;2022-07-30T08:40:34;21.70;1.00
53802;DHT22;39709;53.334;6.534;2022-07-30T08:43:05;21.70;1.00
53802;DHT22;39709;53.334;6.534;2022-07-30T08:45:31;21.80;1.00
53802;DHT22;39709;53.334;6.534;2022-07-30T08:47:59;21.80;1.00
53802;DHT22;39709;53.334;6.534;2022-07-30T08:50:26;21.90;1.00
53802;DHT22;39709;53.334;6.534;2022-07-30T08:52:54;21.90;1.00
53802;DHT22;39709;53.334;6.534;2022-07-30T08:55:23;21.70;1.00
53802;DHT22;39709;53.334;6.534;2022-07-30T08:57:50;21.50;1.00
53802;DHT22;39709;53.334;6.534;2022-07-30T09:00:16;21.30;1.00
53802;DHT22;39709;53.334;6.534;2022-07-30T09:02:42;21.40;1.00
53802;DHT22;39709;53.334;6.534;2022-07-30T09:05:09;21.30;1.00
53802;DHT22;39709;53.334;6.534;2022-07-30T09:07:36;21.20;1.00
53802;DHT22;39709;53.334;6.534;2022-07-30T09:10:04;21.40;1.00
53802;DHT22;39709;53.334;6.534;2022-07-30T09:12:45;21.70;1.00
53802;DHT22;39709;53.334;6.534;2022-07-30T09:17:58;21.60;1.00
53802;DHT22;39709;53.334;6.534;2022-07-30T09:20:31;21.60;1.00
53802;DHT22;39709;53.334;6.534;2022-07-30T09:22:59;21.40;1.00
53802;DHT22;39709;53.334;6.534;2022-07-30T09:25:37;21.50;1.00
53802;DHT22;39709;53.334;6.534;2022-07-30T09:28:04;21.60;1.00
53802;DHT22;39709;53.334;6.534;2022-07-30T09:30:56;21.90;1.00
53802;DHT22;39709;53.334;6.534;2022-07-30T09:33:40;22.10;1.00
53802;DHT22;39709;53.334;6.534;2022-07-30T09:36:11;22.30;1.00
53802;DHT22;39709;53.334;6.534;2022-07-30T09:38:44;22.50;1.00
53802;DHT22;39709;53.334;6.534;2022-07-30T09:41:10;22.50;1.00
53802;DHT22;39709;53.334;6.534;2022-07-30T09:43:51;22.60;1.00
53802;DHT22;39709;53.334;6.534;2022-07-30T09:46:17;22.30;1.00
53802;DHT22;39709;53.334;6.534;2022-07-30T09:48:43;22.50;1.00
53802;DHT22;39709;53.334;6.534;2022-07-30T09:51:11;22.70;1.00
53802;DHT22;39709;53.334;6.534;2022-07-30T09:53:54;22.70;1.00
53802;DHT22;39709;53.334;6.534;2022-07-30T09:56:28;22.50;1.00
53802;DHT22;39709;53.334;6.534;2022-07-30T09:58:54;22.70;1.00
53802;DHT22;39709;53.334;6.534;2022-07-30T10:01:20;22.70;1.00
53802;DHT22;39709;53.334;6.534;2022-07-30T10:03:46;22.40;1.00
53802;DHT22;39709;53.334;6.534;2022-07-30T10:06:12;22.50;1.00
53802;DHT22;39709;53.334;6.534;2022-07-30T10:08:43;22.60;1.00
53802;DHT22;39709;53.334;6.534;2022-07-30T10:11:12;22.70;1.00
53802;DHT22;39709;53.334;6.534;2022-07-30T10:13:39;22.80;1.00
53802;DHT22;39709;53.334;6.534;2022-07-30T10:16:05;22.90;1.00
53802;DHT22;39709;53.334;6.534;2022-07-30T10:18:31;22.70;1.00
53802;DHT22;39709;53.334;6.534;2022-07-30T10:20:58;22.40;1.00
53802;DHT22;39709;53.334;6.534;2022-07-30T10:23:27;22.70;1.00
53802;DHT22;39709;53.334;6.534;2022-07-30T10:25:58;22.30;1.00
53802;DHT22;39709;53.334;6.534;2022-07-30T10:28:24;22.40;1.00
53802;DHT22;39709;53.334;6.534;2022-07-30T10:30:51;22.70;1.00
53802;DHT22;39709;53.334;6.534;2022-07-30T10:33:18;22.60;1.00
53802;DHT22;39709;53.334;6.534;2022-07-30T10:35:45;22.80;1.00
53802;DHT22;39709;53.334;6.534;2022-07-30T10:38:13;22.30;1.00
53802;DHT22;39709;53.334;6.534;2022-07-30T10:41:21;21.90;1.00
53802;DHT22;39709;53.334;6.534;2022-07-30T10:49:10;21.70;1.00
53802;DHT22;39709;53.334;6.534;2022-07-30T10:51:52;21.70;1.00
53802;DHT22;39709;53.334;6.534;2022-07-30T10:54:43;21.90;1.00
53802;DHT22;39709;53.334;6.534;2022-07-30T10:57:14;21.80;1.00
53802;DHT22;39709;53.334;6.534;2022-07-30T11:02:29;21.70;1.00
53802;DHT22;39709;53.334;6.534;2022-07-30T11:07:46;21.90;1.00
53802;DHT22;39709;53.334;6.534;2022-07-30T11:10:37;21.90;1.00
53802;DHT22;39709;53.334;6.534;2022-07-30T11:13:04;21.70;1.00
53802;DHT22;39709;53.334;6.534;2022-07-30T11:15:53;21.50;1.00
53802;DHT22;39709;53.334;6.534;2022-07-30T11:18:19;21.40;1.00
53802;DHT22;39709;53.334;6.534;2022-07-30T11:21:17;21.50;1.00
53802;DHT22;39709;53.334;6.534;2022-07-30T11:23:44;21.40;1.00
53802;DHT22;39709;53.334;6.534;2022-07-30T11:29:33;21.60;1.00
53802;DHT22;39709;53.334;6.534;2022-07-30T11:34:52;22.00;1.00
53802;DHT22;39709;53.334;6.534;2022-07-30T11:37:18;22.00;1.00
53802;DHT22;39709;53.334;6.534;2022-07-30T11:40:11;21.80;1.00
53802;DHT22;39709;53.334;6.534;2022-07-30T11:42:38;21.90;1.00
53802;DHT22;39709;53.334;6.534;2022-07-30T11:47:48;21.90;1.00
53802;DHT22;39709;53.334;6.534;2022-07-30T11:50:28;22.10;1.00
53802;DHT22;39709;53.334;6.534;2022-07-30T11:52:55;22.40;1.00
53802;DHT22;39709;53.334;6.534;2022-07-30T11:55:28;22.50;1.00
53802;DHT22;39709;53.334;6.534;2022-07-30T11:57:56;22.40;1.00
53802;DHT22;39709;53.334;6.534;2022-07-30T12:00:22;22.30;1.00
53802;DHT22;39709;53.334;6.534;2022-07-30T12:02:49;22.20;1.00
53802;DHT22;39709;53.334;6.534;2022-07-30T12:05:21;21.90;1.00
53802;DHT22;39709;53.334;6.534;2022-07-30T12:07:48;21.90;1.00
53802;DHT22;39709;53.334;6.534;2022-07-30T12:10:20;22.00;1.00
53802;DHT22;39709;53.334;6.534;2022-07-30T12:12:46;22.10;1.00
53802;DHT22;39709;53.334;6.534;2022-07-30T12:15:28;22.00;1.00
53802;DHT22;39709;53.334;6.534;2022-07-30T12:17:54;21.90;1.00
53802;DHT22;39709;53.334;6.534;2022-07-30T12:20:20;21.80;1.00
53802;DHT22;39709;53.334;6.534;2022-07-30T12:22:46;21.90;1.00
53802;DHT22;39709;53.334;6.534;2022-07-30T12:25:12;21.90;1.00
53802;DHT22;39709;53.334;6.534;2022-07-30T12:27:39;22.00;1.00
53802;DHT22;39709;53.334;6.534;2022-07-30T12:30:06;22.10;1.00
53802;DHT22;39709;53.334;6.534;2022-07-30T12:32:34;22.10;1.00
53802;DHT22;39709;53.334;6.534;2022-07-30T12:35:00;22.00;1.00
53802;DHT22;39709;53.334;6.534;2022-07-30T12:37:26;22.10;1.00
53802;DHT22;39709;53.334;6.534;2022-07-30T12:40:12;22.00;1.00
53802;DHT22;39709;53.334;6.534;2022-07-30T12:42:49;21.90;1.00
53802;DHT22;39709;53.334;6.534;2022-07-30T12:45:29;21.80;1.00
53802;DHT22;39709;53.334;6.534;2022-07-30T12:47:57;21.90;1.00
53802;DHT22;39709;53.334;6.534;2022-07-30T12:50:23;22.00;1.00
53802;DHT22;39709;53.334;6.534;2022-07-30T12:52:52;22.20;1.00
53802;DHT22;39709;53.334;6.534;2022-07-30T12:55:27;22.10;1.00
53802;DHT22;39709;53.334;6.534;2022-07-30T12:58:05;22.30;1.00
53802;DHT22;39709;53.334;6.534;2022-07-30T13:03:26;22.40;1.00
53802;DHT22;39709;53.334;6.534;2022-07-30T13:05:54;22.50;1.00
53802;DHT22;39709;53.334;6.534;2022-07-30T13:08:43;22.70;1.00
53802;DHT22;39709;53.334;6.534;2022-07-30T13:11:06;22.50;1.00
53802;DHT22;39709;53.334;6.534;2022-07-30T13:13:33;22.50;1.00
53802;DHT22;39709;53.334;6.534;2022-07-30T13:16:04;22.30;1.00
53802;DHT22;39709;53.334;6.534;2022-07-30T13:18:30;22.40;1.00
53802;DHT22;39709;53.334;6.534;2022-07-30T13:20:57;22.40;1.00
53802;DHT22;39709;53.334;6.534;2022-07-30T13:23:24;22.40;1.00
53802;DHT22;39709;53.334;6.534;2022-07-30T13:25:50;22.20;1.00
53802;DHT22;39709;53.334;6.534;2022-07-30T13:28:16;22.30;1.00
53802;DHT22;39709;53.334;6.534;2022-07-30T13:30:42;22.40;1.00
53802;DHT22;39709;53.334;6.534;2022-07-30T13:33:08;22.40;1.00
53802;DHT22;39709;53.334;6.534;2022-07-30T13:35:34;22.50;1.00
53802;DHT22;39709;53.334;6.534;2022-07-30T13:38:00;22.50;1.00
53802;DHT22;39709;53.334;6.534;2022-07-30T13:40:29;22.70;1.00
53802;DHT22;39709;53.334;6.534;2022-07-30T13:43:01;22.90;1.00
53802;DHT22;39709;53.334;6.534;2022-07-30T13:45:28;23.00;1.00
53802;DHT22;39709;53.334;6.534;2022-07-30T13:47:54;23.00;1.00
53802;DHT22;39709;53.334;6.534;2022-07-30T13:50:20;23.00;1.00
53802;DHT22;39709;53.334;6.534;2022-07-30T13:52:45;22.80;1.00
53802;DHT22;39709;53.334;6.534;2022-07-30T13:55:11;22.60;1.00
53802;DHT22;39709;53.334;6.534;2022-07-30T13:57:37;22.60;1.00
53802;DHT22;39709;53.334;6.534;2022-07-30T14:00:04;22.50;1.00
53802;DHT22;39709;53.334;6.534;2022-07-30T14:02:31;22.40;1.00
53802;DHT22;39709;53.334;6.534;2022-07-30T14:04:56;22.40;1.00
53802;DHT22;39709;53.334;6.534;2022-07-30T14:07:22;22.20;1.00
53802;DHT22;39709;53.334;6.534;2022-07-30T14:09:48;22.10;1.00
53802;DHT22;39709;53.334;6.534;2022-07-30T14:12:14;22.30;1.00
53802;DHT22;39709;53.334;6.534;2022-07-30T14:14:40;22.30;1.00
53802;DHT22;39709;53.334;6.534;2022-07-30T14:17:05;22.40;1.00
53802;DHT22;39709;53.334;6.534;2022-07-30T14:19:31;22.50;1.00
53802;DHT22;39709;53.334;6.534;2022-07-30T14:21:57;22.20;1.00
53802;DHT22;39709;53.334;6.534;2022-07-30T14:24:22;22.10;1.00
53802;DHT22;39709;53.334;6.534;2022-07-30T14:26:48;22.10;1.00
53802;DHT22;39709;53.334;6.534;2022-07-30T14:29:15;22.20;1.00
53802;DHT22;39709;53.334;6.534;2022-07-30T14:31:42;22.00;1.00
53802;DHT22;39709;53.334;6.534;2022-07-30T14:34:08;21.90;1.00
53802;DHT22;39709;53.334;6.534;2022-07-30T14:36:34;22.10;1.00
53802;DHT22;39709;53.334;6.534;2022-07-30T14:39:02;22.10;1.00
53802;DHT22;39709;53.334;6.534;2022-07-30T14:41:29;22.00;1.00
53802;DHT22;39709;53.334;6.534;2022-07-30T14:43:55;22.00;1.00
53802;DHT22;39709;53.334;6.534;2022-07-30T14:46:22;22.10;1.00
53802;DHT22;39709;53.334;6.534;2022-07-30T14:48:48;22.20;1.00
53802;DHT22;39709;53.334;6.534;2022-07-30T14:51:14;22.30;1.00
53802;DHT22;39709;53.334;6.534;2022-07-30T14:53:40;22.30;1.00
53802;DHT22;39709;53.334;6.534;2022-07-30T14:56:06;22.30;1.00
53802;DHT22;39709;53.334;6.534;2022-07-30T14:58:32;22.40;1.00
53802;DHT22;39709;53.334;6.534;2022-07-30T15:00:58;22.50;1.00
53802;DHT22;39709;53.334;6.534;2022-07-30T15:03:24;22.40;1.00
53802;DHT22;39709;53.334;6.534;2022-07-30T15:05:51;22.50;1.00
53802;DHT22;39709;53.334;6.534;2022-07-30T15:08:16;22.40;1.00
53802;DHT22;39709;53.334;6.534;2022-07-30T15:10:42;22.20;1.00
53802;DHT22;39709;53.334;6.534;2022-07-30T15:13:08;22.30;1.00
53802;DHT22;39709;53.334;6.534;2022-07-30T15:15:34;22.20;1.00
53802;DHT22;39709;53.334;6.534;2022-07-30T15:18:00;22.40;1.00
53802;DHT22;39709;53.334;6.534;2022-07-30T15:20:25;22.50;1.00
53802;DHT22;39709;53.334;6.534;2022-07-30T15:22:52;22.50;1.00
53802;DHT22;39709;53.334;6.534;2022-07-30T15:25:17;22.40;1.00
53802;DHT22;39709;53.334;6.534;2022-07-30T15:27:43;22.40;1.00
53802;DHT22;39709;53.334;6.534;2022-07-30T15:30:09;22.30;1.00
53802;DHT22;39709;53.334;6.534;2022-07-30T15:32:35;22.30;1.00
53802;DHT22;39709;53.334;6.534;2022-07-30T15:35:02;21.90;1.00
53802;DHT22;39709;53.334;6.534;2022-07-30T15:37:27;22.00;1.00
53802;DHT22;39709;53.334;6.534;2022-07-30T15:39:53;22.20;1.00
53802;DHT22;39709;53.334;6.534;2022-07-30T15:42:19;22.20;1.00
53802;DHT22;39709;53.334;6.534;2022-07-30T15:44:44;22.20;1.00
53802;DHT22;39709;53.334;6.534;2022-07-30T15:47:10;22.30;1.00
53802;DHT22;39709;53.334;6.534;2022-07-30T15:49:36;22.50;1.00
53802;DHT22;39709;53.334;6.534;2022-07-30T15:52:05;22.60;1.00
53802;DHT22;39709;53.334;6.534;2022-07-30T15:54:31;22.70;1.00
53802;DHT22;39709;53.334;6.534;2022-07-30T15:56:57;22.80;1.00
53802;DHT22;39709;53.334;6.534;2022-07-30T15:59:25;22.90;1.00
53802;DHT22;39709;53.334;6.534;2022-07-30T16:01:52;23.10;1.00
53802;DHT22;39709;53.334;6.534;2022-07-30T16:04:18;22.90;1.00
53802;DHT22;39709;53.334;6.534;2022-07-30T16:06:43;22.90;1.00
53802;DHT22;39709;53.334;6.534;2022-07-30T16:09:09;23.10;1.00
53802;DHT22;39709;53.334;6.534;2022-07-30T16:11:35;23.10;1.00
53802;DHT22;39709;53.334;6.534;2022-07-30T16:14:01;22.80;1.00
53802;DHT22;39709;53.334;6.534;2022-07-30T16:16:26;22.80;1.00